sensor_id;sensor_type;location;lat;lon;timestamp;pressure;altitude;pressure_sealevel;temperature;humidity
11184;BME280;5648;43.628;22.684;2022-08-21T00:01:53;94690.25;;;20.12;100.00
11184;BME280;5648;43.628;22.684;2022-08-21T00:04:19;94693.50;;;20.14;100.00
11184;BME280;5648;43.628;22.684;2022-08-21T00:06:44;94694.56;;;20.13;100.00
11184;BME280;5648;43.628;22.684;2022-08-21T00:09:10;94701.75;;;20.23;100.00
11184;BME280;5648;43.628;22.684;2022-08-21T00:11:37;94698.97;;;20.38;100.00
11184;BME280;5648;43.628;22.684;2022-08-21T00:14:05;94701.66;;;20.43;100.00
11184;BME280;5648;43.628;22.684;2022-08-21T00:16:31;94697.38;;;20.37;100.00
11184;BME280;5648;43.628;22.684;2022-08-21T00:18:57;94695.00;;;20.31;100.00
11184;BME280;5648;43.628;22.684;2022-08-21T00:21:23;94694.69;;;20.37;100.00
11184;BME280;5648;43.628;22.684;2022-08-21T00:23:51;94693.69;;;20.28;100.00
11184;BME280;5648;43.628;22.684;2022-08-21T00:26:16;94687.28;;;20.19;100.00
11184;BME280;5648;43.628;22.684;2022-08-21T00:28:42;94695.16;;;20.05;100.00
11184;BME280;5648;43.628;22.684;2022-08-21T00:31:08;94686.53;;;20.13;100.00
11184;BME280;5648;43.628;22.684;2022-08-21T00:33:34;94685.78;;;20.03;100.00
11184;BME280;5648;43.628;22.684;2022-08-21T00:36:00;94677.50;;;19.94;100.00
11184;BME280;5648;43.628;22.684;2022-08-21T00:38:26;94676.41;;;20.00;100.00
11184;BME280;5648;43.628;22.684;2022-08-21T00:40:54;94690.34;;;20.02;100.00
11184;BME280;5648;43.628;22.684;2022-08-21T00:43:23;94687.66;;;19.97;100.00
11184;BME280;5648;43.628;22.684;2022-08-21T00:45:51;94698.66;;;20.01;100.00
11184;BME280;5648;43.628;22.684;2022-08-21T00:48:17;94688.41;;;20.08;100.00
11184;BME280;5648;43.628;22.684;2022-08-21T00:50:48;94695.09;;;20.15;100.00
11184;BME280;5648;43.628;22.684;2022-08-21T00:53:14;94698.59;;;20.11;100.00
11184;BME280;5648;43.628;22.684;2022-08-21T00:55:41;94691.34;;;20.11;100.00
11184;BME280;5648;43.628;22.684;2022-08-21T00:58:08;94699.16;;;20.08;100.00
11184;BME280;5648;43.628;22.684;2022-08-21T01:00:38;94696.19;;;20.09;100.00
11184;BME280;5648;43.628;22.684;2022-08-21T01:03:13;94696.19;;;20.14;100.00
11184;BME280;5648;43.628;22.684;2022-08-21T01:05:40;94707.47;;;20.06;100.00
11184;BME280;5648;43.628;22.684;2022-08-21T01:08:07;94708.84;;;20.04;100.00
11184;BME280;5648;43.628;22.684;2022-08-21T01:10:33;94695.19;;;20.00;100.00
11184;BME280;5648;43.628;22.684;2022-08-21T01:13:01;94685.78;;;20.03;100.00
11184;BME280;5648;43.628;22.684;2022-08-21T01:15:31;94680.94;;;20.05;100.00
11184;BME280;5648;43.628;22.684;2022-08-21T01:17:59;94689.03;;;19.95;100.00
11184;BME280;5648;43.628;22.684;2022-08-21T01:20:25;94685.56;;;19.84;100.00
11184;BME280;5648;43.628;22.684;2022-08-21T01:22:51;94688.03;;;19.70;100.00
11184;BME280;5648;43.628;22.684;2022-08-21T01:25:17;94683.69;;;19.84;100.00
11184;BME280;5648;43.628;22.684;2022-08-21T01:27:45;94690.97;;;19.79;100.00
11184;BME280;5648;43.628;22.684;2022-08-21T01:30:21;94695.78;;;19.87;100.00
11184;BME280;5648;43.628;22.684;2022-08-21T01:32:48;94686.94;;;19.81;100.00
11184;BME280;5648;43.628;22.684;2022-08-21T01:35:15;94700.78;;;20.04;100.00
11184;BME280;5648;43.628;22.684;2022-08-21T01:37:41;94694.38;;;19.95;100.00
11184;BME280;5648;43.628;22.684;2022-08-21T01:40:09;94694.41;;;19.90;100.00
11184;BME280;5648;43.628;22.684;2022-08-21T01:42:36;94694.41;;;19.90;100.00
11184;BME280;5648;43.628;22.684;2022-08-21T01:45:03;94696.03;;;19.91;100.00
11184;BME280;5648;43.628;22.684;2022-08-21T01:47:30;94687.47;;;19.83;100.00
11184;BME280;5648;43.628;22.684;2022-08-21T01:49:55;94688.56;;;19.77;100.00
11184;BME280;5648;43.628;22.684;2022-08-21T01:52:21;94685.34;;;19.80;100.00
11184;BME280;5648;43.628;22.684;2022-08-21T01:54:47;94685.56;;;19.84;100.00
11184;BME280;5648;43.628;22.684;2022-08-21T01:57:13;94691.22;;;19.82;100.00
11184;BME280;5648;43.628;22.684;2022-08-21T01:59:39;94693.03;;;19.97;100.00
11184;BME280;5648;43.628;22.684;2022-08-21T02:02:05;94690.63;;;19.96;100.00
11184;BME280;5648;43.628;22.684;2022-08-21T02:04:31;94675.03;;;20.03;100.00
11184;BME280;5648;43.628;22.684;2022-08-21T02:06:58;94679.28;;;20.09;100.00
11184;BME280;5648;43.628;22.684;2022-08-21T02:09:23;94688.22;;;19.99;100.00
11184;BME280;5648;43.628;22.684;2022-08-21T02:11:49;94683.44;;;19.86;100.00
11184;BME280;5648;43.628;22.684;2022-08-21T02:14:15;94685.25;;;19.96;100.00
11184;BME280;5648;43.628;22.684;2022-08-21T02:16:43;94685.25;;;19.96;100.00
11184;BME280;5648;43.628;22.684;2022-08-21T02:19:09;94683.66;;;19.95;100.00
11184;BME280;5648;43.628;22.684;2022-08-21T02:21:35;94683.16;;;19.82;100.00
11184;BME280;5648;43.628;22.684;2022-08-21T02:24:01;94692.88;;;19.68;100.00
11184;BME280;5648;43.628;22.684;2022-08-21T02:26:27;94692.34;;;19.76;100.00
11184;BME280;5648;43.628;22.684;2022-08-21T02:28:52;94688.56;;;19.77;100.00
11184;BME280;5648;43.628;22.684;2022-08-21T02:31:18;94683.44;;;19.81;100.00
11184;BME280;5648;43.628;22.684;2022-08-21T02:33:43;94678.38;;;19.79;100.00
11184;BME280;5648;43.628;22.684;2022-08-21T02:36:11;94688.56;;;19.77;100.00
11184;BME280;5648;43.628;22.684;2022-08-21T02:38:38;94678.88;;;19.81;100.00
11184;BME280;5648;43.628;22.684;2022-08-21T02:41:09;94676.00;;;19.68;100.00
11184;BME280;5648;43.628;22.684;2022-08-21T02:43:35;94671.50;;;19.58;100.00
11184;BME280;5648;43.628;22.684;2022-08-21T02:46:03;94672.56;;;19.57;100.00
11184;BME280;5648;43.628;22.684;2022-08-21T02:48:31;94682.75;;;19.45;100.00
11184;BME280;5648;43.628;22.684;2022-08-21T02:51:16;94671.75;;;19.46;100.00
11184;BME280;5648;43.628;22.684;2022-08-21T02:53:44;94671.75;;;19.46;100.00
11184;BME280;5648;43.628;22.684;2022-08-21T02:56:12;94673.13;;;19.44;100.00
11184;BME280;5648;43.628;22.684;2022-08-21T02:58:44;94676.59;;;19.39;100.00
11184;BME280;5648;43.628;22.684;2022-08-21T03:01:10;94676.59;;;19.39;100.00
11184;BME280;5648;43.628;22.684;2022-08-21T03:03:39;94673.63;;;19.41;100.00
11184;BME280;5648;43.628;22.684;2022-08-21T03:06:07;94658.38;;;19.36;100.00
11184;BME280;5648;43.628;22.684;2022-08-21T03:08:34;94661.28;;;19.50;100.00
11184;BME280;5648;43.628;22.684;2022-08-21T03:10:59;94647.63;;;19.51;100.00
11184;BME280;5648;43.628;22.684;2022-08-21T03:13:27;94673.06;;;19.64;100.00
11184;BME280;5648;43.628;22.684;2022-08-21T03:15:53;94655.41;;;19.58;100.00
11184;BME280;5648;43.628;22.684;2022-08-21T03:18:19;94654.59;;;19.58;100.00
11184;BME280;5648;43.628;22.684;2022-08-21T03:20:45;94667.22;;;19.57;100.00
11184;BME280;5648;43.628;22.684;2022-08-21T03:23:12;94653.25;;;19.55;100.00
11184;BME280;5648;43.628;22.684;2022-08-21T03:25:38;94657.84;;;19.39;100.00
11184;BME280;5648;43.628;22.684;2022-08-21T03:28:06;94659.72;;;19.44;100.00
11184;BME280;5648;43.628;22.684;2022-08-21T03:30:32;94659.16;;;19.47;100.00
11184;BME280;5648;43.628;22.684;2022-08-21T03:32:58;94664.78;;;19.50;100.00
11184;BME280;5648;43.628;22.684;2022-08-21T03:35:25;94668.00;;;19.47;100.00
11184;BME280;5648;43.628;22.684;2022-08-21T03:37:51;94675.53;;;19.40;100.00
11184;BME280;5648;43.628;22.684;2022-08-21T03:40:18;94681.72;;;19.36;100.00
11184;BME280;5648;43.628;22.684;2022-08-21T03:42:44;94667.22;;;19.37;100.00
11184;BME280;5648;43.628;22.684;2022-08-21T03:45:14;94674.50;;;19.31;100.00
11184;BME280;5648;43.628;22.684;2022-08-21T03:47:57;94669.94;;;19.21;100.00
11184;BME280;5648;43.628;22.684;2022-08-21T03:50:26;94672.59;;;19.37;100.00
11184;BME280;5648;43.628;22.684;2022-08-21T03:52:52;94659.78;;;19.28;100.00
11184;BME280;5648;43.628;22.684;2022-08-21T03:55:18;94671.25;;;19.39;100.00
11184;BME280;5648;43.628;22.684;2022-08-21T03:57:43;94675.78;;;19.39;100.00
11184;BME280;5648;43.628;22.684;2022-08-21T04:00:10;94684.13;;;19.37;100.00
11184;BME280;5648;43.628;22.684;2022-08-21T04:02:38;94675.28;;;19.32;100.00
11184;BME280;5648;43.628;22.684;2022-08-21T04:05:07;94670.97;;;19.41;100.00
11184;BME280;5648;43.628;22.684;2022-08-21T04:07:33;94678.44;;;19.54;100.00
11184;BME280;5648;43.628;22.684;2022-08-21T04:09:58;94675.50;;;19.50;100.00
11184;BME280;5648;43.628;22.684;2022-08-21T04:12:24;94678.22;;;19.45;100.00
11184;BME280;5648;43.628;22.684;2022-08-21T04:14:49;94688.41;;;19.33;100.00
11184;BME280;5648;43.628;22.684;2022-08-21T04:17:17;94694.50;;;19.54;100.00
11184;BME280;5648;43.628;22.684;2022-08-21T04:19:42;94694.00;;;19.47;100.00
11184;BME280;5648;43.628;22.684;2022-08-21T04:22:08;94690.28;;;19.27;100.00
11184;BME280;5648;43.628;22.684;2022-08-21T04:24:33;94685.47;;;19.35;100.00
11184;BME280;5648;43.628;22.684;2022-08-21T04:26:59;94692.97;;;19.43;100.00
11184;BME280;5648;43.628;22.684;2022-08-21T04:29:25;94686.78;;;19.58;100.00
11184;BME280;5648;43.628;22.684;2022-08-21T04:31:50;94688.34;;;19.53;100.00
11184;BME280;5648;43.628;22.684;2022-08-21T04:34:17;94688.63;;;19.62;100.00
11184;BME280;5648;43.628;22.684;2022-08-21T04:36:43;94692.34;;;19.66;100.00
11184;BME280;5648;43.628;22.684;2022-08-21T04:39:08;94687.81;;;19.67;100.00
11184;BME280;5648;43.628;22.684;2022-08-21T04:41:34;94682.69;;;19.70;100.00
11184;BME280;5648;43.628;22.684;2022-08-21T04:44:02;94692.09;;;19.73;100.00
11184;BME280;5648;43.628;22.684;2022-08-21T04:46:27;94685.91;;;19.72;100.00
11184;BME280;5648;43.628;22.684;2022-08-21T04:48:53;94680.56;;;19.72;100.00
11184;BME280;5648;43.628;22.684;2022-08-21T04:51:28;94689.38;;;19.78;100.00
11184;BME280;5648;43.628;22.684;2022-08-21T04:54:12;94684.72;;;19.94;100.00
11184;BME280;5648;43.628;22.684;2022-08-21T04:56:49;94688.53;;;19.88;100.00
11184;BME280;5648;43.628;22.684;2022-08-21T04:59:38;94689.56;;;19.92;100.00
11184;BME280;5648;43.628;22.684;2022-08-21T05:02:07;94686.84;;;19.97;100.00
11184;BME280;5648;43.628;22.684;2022-08-21T05:04:37;94684.22;;;19.92;100.00
11184;BME280;5648;43.628;22.684;2022-08-21T05:07:05;94688.22;;;19.99;100.00
11184;BME280;5648;43.628;22.684;2022-08-21T05:09:33;94683.84;;;20.08;100.00
11184;BME280;5648;43.628;22.684;2022-08-21T05:12:01;94681.97;;;20.09;100.00
11184;BME280;5648;43.628;22.684;2022-08-21T05:14:27;94684.38;;;20.15;100.00
11184;BME280;5648;43.628;22.684;2022-08-21T05:16:52;94680.84;;;20.20;100.00
11184;BME280;5648;43.628;22.684;2022-08-21T05:19:18;94683.47;;;20.30;100.00
11184;BME280;5648;43.628;22.684;2022-08-21T05:21:45;94683.47;;;20.30;100.00
11184;BME280;5648;43.628;22.684;2022-08-21T05:24:13;94674.84;;;20.33;100.00
11184;BME280;5648;43.628;22.684;2022-08-21T05:26:39;94675.88;;;20.37;100.00
11184;BME280;5648;43.628;22.684;2022-08-21T05:29:04;94675.94;;;20.32;100.00
11184;BME280;5648;43.628;22.684;2022-08-21T05:31:30;94673.50;;;20.36;100.00
11184;BME280;5648;43.628;22.684;2022-08-21T05:33:56;94682.38;;;20.31;100.00
11184;BME280;5648;43.628;22.684;2022-08-21T05:36:22;94671.75;;;20.11;100.00
11184;BME280;5648;43.628;22.684;2022-08-21T05:38:48;94674.47;;;20.06;100.00
11184;BME280;5648;43.628;22.684;2022-08-21T05:41:14;94666.09;;;20.17;100.00
11184;BME280;5648;43.628;22.684;2022-08-21T05:43:39;94674.44;;;20.16;100.00
11184;BME280;5648;43.628;22.684;2022-08-21T05:46:06;94673.78;;;20.34;100.00
11184;BME280;5648;43.628;22.684;2022-08-21T05:48:33;94676.59;;;20.14;100.00
11184;BME280;5648;43.628;22.684;2022-08-21T05:51:05;94678.53;;;19.98;100.00
11184;BME280;5648;43.628;22.684;2022-08-21T05:53:31;94681.41;;;20.17;100.00
11184;BME280;5648;43.628;22.684;2022-08-21T05:55:56;94689.78;;;20.05;100.00
11184;BME280;5648;43.628;22.684;2022-08-21T05:58:21;94676.03;;;20.17;100.00
11184;BME280;5648;43.628;22.684;2022-08-21T06:00:49;94688.03;;;20.30;100.00
11184;BME280;5648;43.628;22.684;2022-08-21T06:03:25;94691.22;;;20.42;100.00
11184;BME280;5648;43.628;22.684;2022-08-21T06:05:52;94692.44;;;20.60;100.00
11184;BME280;5648;43.628;22.684;2022-08-21T06:08:18;94685.47;;;20.54;100.00
11184;BME280;5648;43.628;22.684;2022-08-21T06:10:46;94686.81;;;20.56;100.00
11184;BME280;5648;43.628;22.684;2022-08-21T06:13:12;94687.56;;;20.62;100.00
11184;BME280;5648;43.628;22.684;2022-08-21T06:15:38;94685.63;;;20.72;100.00
11184;BME280;5648;43.628;22.684;2022-08-21T06:18:04;94694.25;;;20.69;100.00
11184;BME280;5648;43.628;22.684;2022-08-21T06:20:30;94694.19;;;20.74;100.00
11184;BME280;5648;43.628;22.684;2022-08-21T06:22:56;94691.50;;;20.74;100.00
11184;BME280;5648;43.628;22.684;2022-08-21T06:25:22;94685.91;;;20.66;100.00
11184;BME280;5648;43.628;22.684;2022-08-21T06:27:47;94698.34;;;20.57;100.00
11184;BME280;5648;43.628;22.684;2022-08-21T06:30:13;94691.44;;;20.45;100.00
11184;BME280;5648;43.628;22.684;2022-08-21T06:32:39;94693.50;;;20.59;100.00
11184;BME280;5648;43.628;22.684;2022-08-21T06:35:05;94695.03;;;20.70;100.00
11184;BME280;5648;43.628;22.684;2022-08-21T06:37:32;94693.94;;;21.05;100.00
11184;BME280;5648;43.628;22.684;2022-08-21T06:39:57;94694.66;;;21.11;100.00
11184;BME280;5648;43.628;22.684;2022-08-21T06:42:23;94702.72;;;21.16;100.00
11184;BME280;5648;43.628;22.684;2022-08-21T06:44:48;94693.25;;;21.18;100.00
11184;BME280;5648;43.628;22.684;2022-08-21T06:47:14;94692.63;;;21.31;100.00
11184;BME280;5648;43.628;22.684;2022-08-21T06:49:40;94688.00;;;21.37;100.00
11184;BME280;5648;43.628;22.684;2022-08-21T06:52:10;94683.25;;;21.53;100.00
11184;BME280;5648;43.628;22.684;2022-08-21T06:54:36;94682.84;;;21.64;100.00
11184;BME280;5648;43.628;22.684;2022-08-21T06:57:02;94688.69;;;21.48;100.00
11184;BME280;5648;43.628;22.684;2022-08-21T06:59:27;94686.22;;;21.51;100.00
11184;BME280;5648;43.628;22.684;2022-08-21T07:01:52;94692.47;;;21.47;100.00
11184;BME280;5648;43.628;22.684;2022-08-21T07:04:18;94673.53;;;21.33;100.00
11184;BME280;5648;43.628;22.684;2022-08-21T07:06:45;94689.97;;;21.55;100.00
11184;BME280;5648;43.628;22.684;2022-08-21T07:09:10;94686.88;;;21.43;100.00
11184;BME280;5648;43.628;22.684;2022-08-21T07:11:37;94689.56;;;21.43;100.00
11184;BME280;5648;43.628;22.684;2022-08-21T07:14:03;94700.31;;;21.43;100.00
11184;BME280;5648;43.628;22.684;2022-08-21T07:16:28;94700.16;;;21.58;100.00
11184;BME280;5648;43.628;22.684;2022-08-21T07:18:54;94674.22;;;21.44;100.00
11184;BME280;5648;43.628;22.684;2022-08-21T07:21:19;94694.78;;;21.58;100.00
11184;BME280;5648;43.628;22.684;2022-08-21T07:23:48;94695.91;;;21.76;100.00
11184;BME280;5648;43.628;22.684;2022-08-21T07:26:16;94680.97;;;21.41;100.00
11184;BME280;5648;43.628;22.684;2022-08-21T07:28:42;94685.38;;;21.56;100.00
11184;BME280;5648;43.628;22.684;2022-08-21T07:31:09;94684.34;;;21.52;100.00
11184;BME280;5648;43.628;22.684;2022-08-21T07:33:35;94691.03;;;21.78;100.00
11184;BME280;5648;43.628;22.684;2022-08-21T07:36:02;94692.59;;;21.84;100.00
11184;BME280;5648;43.628;22.684;2022-08-21T07:38:28;94685.06;;;22.05;100.00
11184;BME280;5648;43.628;22.684;2022-08-21T07:40:55;94672.13;;;22.07;100.00
11184;BME280;5648;43.628;22.684;2022-08-21T07:43:22;94681.66;;;22.18;100.00
11184;BME280;5648;43.628;22.684;2022-08-21T07:45:48;94685.25;;;22.33;100.00
11184;BME280;5648;43.628;22.684;2022-08-21T07:48:15;94662.91;;;22.32;100.00
11184;BME280;5648;43.628;22.684;2022-08-21T07:50:41;94671.78;;;22.33;100.00
11184;BME280;5648;43.628;22.684;2022-08-21T07:53:06;94684.44;;;22.51;100.00
11184;BME280;5648;43.628;22.684;2022-08-21T07:55:33;94662.72;;;22.61;100.00
11184;BME280;5648;43.628;22.684;2022-08-21T07:57:59;94664.91;;;22.59;100.00
11184;BME280;5648;43.628;22.684;2022-08-21T08:00:26;94676.13;;;22.66;100.00
11184;BME280;5648;43.628;22.684;2022-08-21T08:02:53;94677.16;;;22.70;100.00
11184;BME280;5648;43.628;22.684;2022-08-21T08:05:22;94668.03;;;22.85;100.00
11184;BME280;5648;43.628;22.684;2022-08-21T08:07:48;94654.25;;;22.87;100.00
11184;BME280;5648;43.628;22.684;2022-08-21T08:10:15;94654.25;;;22.87;100.00
11184;BME280;5648;43.628;22.684;2022-08-21T08:12:43;94659.72;;;23.14;100.00
11184;BME280;5648;43.628;22.684;2022-08-21T08:15:12;94659.16;;;23.31;100.00
11184;BME280;5648;43.628;22.684;2022-08-21T08:17:38;94643.16;;;23.34;100.00
11184;BME280;5648;43.628;22.684;2022-08-21T08:20:05;94666.38;;;23.63;100.00
11184;BME280;5648;43.628;22.684;2022-08-21T08:22:30;94649.09;;;23.64;100.00
11184;BME280;5648;43.628;22.684;2022-08-21T08:24:56;94660.50;;;23.61;100.00
11184;BME280;5648;43.628;22.684;2022-08-21T08:27:22;94646.31;;;23.69;100.00
11184;BME280;5648;43.628;22.684;2022-08-21T08:29:48;94638.41;;;23.59;100.00
11184;BME280;5648;43.628;22.684;2022-08-21T08:32:14;94646.00;;;23.71;100.00
11184;BME280;5648;43.628;22.684;2022-08-21T08:34:40;94642.78;;;23.55;100.00
11184;BME280;5648;43.628;22.684;2022-08-21T08:37:07;94642.00;;;23.68;100.00
11184;BME280;5648;43.628;22.684;2022-08-21T08:39:34;94645.31;;;23.65;100.00
11184;BME280;5648;43.628;22.684;2022-08-21T08:42:08;94649.50;;;23.85;100.00
11184;BME280;5648;43.628;22.684;2022-08-21T08:44:36;94651.25;;;24.03;100.00
11184;BME280;5648;43.628;22.684;2022-08-21T08:47:03;94639.22;;;23.59;100.00
11184;BME280;5648;43.628;22.684;2022-08-21T08:52:22;94642.78;;;24.46;100.00
11184;BME280;5648;43.628;22.684;2022-08-21T08:55:07;94638.91;;;24.24;100.00
11184;BME280;5648;43.628;22.684;2022-08-21T08:57:34;94643.63;;;24.33;100.00
11184;BME280;5648;43.628;22.684;2022-08-21T09:00:09;94641.63;;;24.61;100.00
11184;BME280;5648;43.628;22.684;2022-08-21T09:02:38;94644.63;;;24.59;100.00
11184;BME280;5648;43.628;22.684;2022-08-21T09:05:05;94649.28;;;24.90;100.00
11184;BME280;5648;43.628;22.684;2022-08-21T09:07:44;94647.91;;;24.92;100.00
11184;BME280;5648;43.628;22.684;2022-08-21T09:10:30;94640.13;;;24.99;100.00
11184;BME280;5648;43.628;22.684;2022-08-21T09:13:09;94633.63;;;25.31;100.00
11184;BME280;5648;43.628;22.684;2022-08-21T09:16:04;94644.88;;;25.16;100.00
11184;BME280;5648;43.628;22.684;2022-08-21T09:29:33;94622.16;;;24.72;100.00
11184;BME280;5648;43.628;22.684;2022-08-21T09:31:59;94627.50;;;24.41;100.00
11184;BME280;5648;43.628;22.684;2022-08-21T09:34:30;94619.47;;;24.50;100.00
11184;BME280;5648;43.628;22.684;2022-08-21T09:36:57;94613.06;;;24.46;100.00
11184;BME280;5648;43.628;22.684;2022-08-21T09:39:27;94617.97;;;24.66;100.00
11184;BME280;5648;43.628;22.684;2022-08-21T09:42:02;94610.78;;;24.62;100.00
11184;BME280;5648;43.628;22.684;2022-08-21T09:44:30;94596.91;;;24.54;100.00
11184;BME280;5648;43.628;22.684;2022-08-21T09:46:57;94608.94;;;24.71;100.00
11184;BME280;5648;43.628;22.684;2022-08-21T09:49:34;94601.63;;;24.94;100.00
11184;BME280;5648;43.628;22.684;2022-08-21T09:52:01;94612.22;;;24.90;100.00
11184;BME280;5648;43.628;22.684;2022-08-21T09:54:37;94607.28;;;24.83;100.00
11184;BME280;5648;43.628;22.684;2022-08-21T09:57:18;94605.22;;;24.89;100.00
11184;BME280;5648;43.628;22.684;2022-08-21T10:02:46;94599.84;;;24.67;100.00
11184;BME280;5648;43.628;22.684;2022-08-21T10:05:25;94598.72;;;24.90;100.00
11184;BME280;5648;43.628;22.684;2022-08-21T10:07:51;94599.16;;;25.06;100.00
11184;BME280;5648;43.628;22.684;2022-08-21T10:10:23;94595.31;;;25.38;100.00
11184;BME280;5648;43.628;22.684;2022-08-21T10:13:13;94603.38;;;25.21;100.00
11184;BME280;5648;43.628;22.684;2022-08-21T10:18:48;94601.66;;;25.02;100.00
11184;BME280;5648;43.628;22.684;2022-08-21T10:21:35;94602.22;;;24.91;100.00
11184;BME280;5648;43.628;22.684;2022-08-21T10:29:50;94589.84;;;24.98;100.00
11184;BME280;5648;43.628;22.684;2022-08-21T10:41:32;94587.06;;;25.43;100.00
11184;BME280;5648;43.628;22.684;2022-08-21T10:44:11;94591.09;;;25.63;100.00
11184;BME280;5648;43.628;22.684;2022-08-21T10:46:56;94573.16;;;25.75;100.00
11184;BME280;5648;43.628;22.684;2022-08-21T10:54:52;94567.91;;;25.79;100.00
11184;BME280;5648;43.628;22.684;2022-08-21T11:00:09;94565.28;;;25.57;100.00
11184;BME280;5648;43.628;22.684;2022-08-21T11:10:40;94536.69;;;25.82;100.00
11184;BME280;5648;43.628;22.684;2022-08-21T11:13:14;94554.06;;;25.98;100.00
11184;BME280;5648;43.628;22.684;2022-08-21T11:18:32;94540.59;;;25.58;100.00
11184;BME280;5648;43.628;22.684;2022-08-21T11:26:04;94545.94;;;25.24;100.00
11184;BME280;5648;43.628;22.684;2022-08-21T11:28:37;94561.94;;;24.58;100.00
11184;BME280;5648;43.628;22.684;2022-08-21T11:34:20;94572.91;;;22.66;100.00
11184;BME280;5648;43.628;22.684;2022-08-21T11:47:59;94560.72;;;22.03;100.00
11184;BME280;5648;43.628;22.684;2022-08-21T11:50:28;94557.66;;;22.29;100.00
11184;BME280;5648;43.628;22.684;2022-08-21T11:55:47;94541.81;;;22.73;100.00
11184;BME280;5648;43.628;22.684;2022-08-21T11:58:23;94546.66;;;22.90;100.00
11184;BME280;5648;43.628;22.684;2022-08-21T12:01:10;94553.66;;;23.32;100.00
11184;BME280;5648;43.628;22.684;2022-08-21T12:03:42;94549.25;;;23.64;100.00
11184;BME280;5648;43.628;22.684;2022-08-21T12:06:14;94540.88;;;23.65;100.00
11184;BME280;5648;43.628;22.684;2022-08-21T12:08:42;94548.66;;;23.53;100.00
11184;BME280;5648;43.628;22.684;2022-08-21T12:11:23;94532.25;;;23.63;100.00
11184;BME280;5648;43.628;22.684;2022-08-21T12:16:44;94537.50;;;24.18;100.00
11184;BME280;5648;43.628;22.684;2022-08-21T12:19:28;94548.50;;;24.22;100.00
11184;BME280;5648;43.628;22.684;2022-08-21T12:24:40;94527.13;;;24.56;100.00
11184;BME280;5648;43.628;22.684;2022-08-21T12:27:30;94534.06;;;24.49;100.00
11184;BME280;5648;43.628;22.684;2022-08-21T12:30:21;94542.28;;;23.99;100.00
11184;BME280;5648;43.628;22.684;2022-08-21T12:32:57;94540.09;;;24.23;100.00
11184;BME280;5648;43.628;22.684;2022-08-21T12:35:42;94531.97;;;24.23;100.00
11184;BME280;5648;43.628;22.684;2022-08-21T12:38:29;94536.53;;;23.78;100.00
11184;BME280;5648;43.628;22.684;2022-08-21T12:41:01;94543.28;;;23.39;100.00
11184;BME280;5648;43.628;22.684;2022-08-21T12:43:34;94538.44;;;23.50;100.00
11184;BME280;5648;43.628;22.684;2022-08-21T12:46:01;94560.25;;;23.26;100.00
11184;BME280;5648;43.628;22.684;2022-08-21T12:51:16;94553.91;;;22.76;100.00
11184;BME280;5648;43.628;22.684;2022-08-21T12:54:02;94565.41;;;22.49;100.00
11184;BME280;5648;43.628;22.684;2022-08-21T12:56:34;94565.31;;;22.21;100.00
11184;BME280;5648;43.628;22.684;2022-08-21T12:59:06;94573.00;;;21.90;100.00
11184;BME280;5648;43.628;22.684;2022-08-21T13:01:46;94573.75;;;21.34;100.00
11184;BME280;5648;43.628;22.684;2022-08-21T13:04:18;94569.81;;;21.27;100.00
11184;BME280;5648;43.628;22.684;2022-08-21T13:06:48;94565.88;;;21.62;100.00
11184;BME280;5648;43.628;22.684;2022-08-21T13:09:20;94558.81;;;21.47;100.00
11184;BME280;5648;43.628;22.684;2022-08-21T13:11:49;94570.16;;;21.44;100.00
11184;BME280;5648;43.628;22.684;2022-08-21T13:16:47;94595.97;;;20.92;100.00
11184;BME280;5648;43.628;22.684;2022-08-21T13:19:16;94610.44;;;20.67;100.00
11184;BME280;5648;43.628;22.684;2022-08-21T13:21:43;94613.91;;;20.34;100.00
11184;BME280;5648;43.628;22.684;2022-08-21T13:26:41;94614.44;;;20.36;100.00
11184;BME280;5648;43.628;22.684;2022-08-21T13:29:09;94602.69;;;20.27;100.00
11184;BME280;5648;43.628;22.684;2022-08-21T13:31:37;94594.84;;;20.35;100.00
11184;BME280;5648;43.628;22.684;2022-08-21T13:34:05;94613.53;;;20.51;100.00
11184;BME280;5648;43.628;22.684;2022-08-21T13:36:35;94601.13;;;20.55;100.00
11184;BME280;5648;43.628;22.684;2022-08-21T13:39:04;94591.06;;;20.36;100.00
11184;BME280;5648;43.628;22.684;2022-08-21T13:41:35;94585.31;;;20.19;100.00
11184;BME280;5648;43.628;22.684;2022-08-21T13:46:42;94595.25;;;20.19;100.00
11184;BME280;5648;43.628;22.684;2022-08-21T13:49:10;94600.25;;;19.91;100.00
11184;BME280;5648;43.628;22.684;2022-08-21T13:51:37;94590.47;;;19.66;100.00
11184;BME280;5648;43.628;22.684;2022-08-21T13:54:37;94604.47;;;19.58;100.00
11184;BME280;5648;43.628;22.684;2022-08-21T13:57:03;94606.88;;;19.60;100.00
11184;BME280;5648;43.628;22.684;2022-08-21T13:59:32;94599.63;;;19.50;100.00
11184;BME280;5648;43.628;22.684;2022-08-21T14:02:07;94595.09;;;19.40;100.00
11184;BME280;5648;43.628;22.684;2022-08-21T14:04:42;94594.91;;;19.26;100.00
11184;BME280;5648;43.628;22.684;2022-08-21T14:07:30;94599.19;;;19.27;100.00
11184;BME280;5648;43.628;22.684;2022-08-21T14:10:02;94599.72;;;19.24;100.00
11184;BME280;5648;43.628;22.684;2022-08-21T14:12:35;94595.22;;;19.15;100.00
11184;BME280;5648;43.628;22.684;2022-08-21T14:15:04;94595.75;;;19.12;100.00
11184;BME280;5648;43.628;22.684;2022-08-21T14:17:36;94586.94;;;19.06;100.00
11184;BME280;5648;43.628;22.684;2022-08-21T14:20:07;94589.34;;;19.08;100.00
11184;BME280;5648;43.628;22.684;2022-08-21T14:22:47;94557.16;;;19.13;100.00
11184;BME280;5648;43.628;22.684;2022-08-21T14:27:54;94567.31;;;19.21;100.00
11184;BME280;5648;43.628;22.684;2022-08-21T14:30:28;94563.56;;;19.22;100.00
11184;BME280;5648;43.628;22.684;2022-08-21T14:32:54;94581.22;;;19.28;100.00
11184;BME280;5648;43.628;22.684;2022-08-21T14:35:19;94593.22;;;19.46;100.00